Hoopa, CA (95546)

5:01 PM PDT on August 29, 2016 (GMT -0700)
RAWS | | Change Station

Elev 2652 ft 41.14 °N, 123.91 °W | Updated 1 hour ago

Overcast
Overcast
59.0 °F
Feels Like 59.0 °F
N
10.0
Wind Variable Wind from WSW
Gusts 19.0 mph

Today
High -- | Low -- °F
--% Chance of Precip.
Yesterday
High -- | Low -- °F
Precip. -- in
Pressure 30.12 in
Visibility 10.0 miles
Clouds Overcast 2900 ft
Dew Point 51.0 °F
Humidity 74%
Rainfall in
Snow Depth Not available.
6:39 AM 7:51 PM
Waning Crescent, 6% visible
METAR KACV 292353Z AUTO 32005KT 10SM OVC029 17/12 A3011 RMK AO2 SLP199 T01720117 10189 20156 58004
Pressure 30.12 in
Visibility 10.0 miles
Clouds Overcast 2900 ft
Dew Point 51.0 °F
Humidity 74%
Rainfall in
Snow Depth Not available.
6:39 AM 7:51 PM
Waning Crescent, 6% visible
METAR KACV 292353Z AUTO 32005KT 10SM OVC029 17/12 A3011 RMK AO2 SLP199 T01720117 10189 20156 58004

10-Day Weather Forecast

Almanac

Astronomy

Aug. 29, 2016 Rise Set
Actual Time
Civil Twilight
Nautical Twilight
Astronomical Twilight
Moon
Length of Visible Light
Length of Day
Tomorrow will be .
, % of the Moon is Illuminated

Today's Extremes

State Highs State Lows

Community

WunderPhotos

Upload Photos

1,935,699 photos uploaded!

WunderBlog® & News

Nearby

Air Quality

  Air Quality AQ Index Pollutant
Not available.

Snow Depth

Station Depth Elevation

Earthquake Activity

City Distance Mag. Time & Date
Minimum magnitude displayed is 2.5.

Coastal Water Temperatures

Place Temperature

Stations

Nearby Weather Stations

Station Location Temp. Windchill Dew Point Humidity Wind Precip. Elev Updated Type
                   

Watches & Warnings

There are currently no watches in effect.